sensor_id;sensor_type;location;lat;lon;timestamp;P1;durP1;ratioP1;P2;durP2;ratioP2
60436;SDS011;46289;51.992;4.498;2023-12-14T00:00:01;21.85;;;9.57;;
60436;SDS011;46289;51.992;4.498;2023-12-14T00:02:05;21.23;;;10.38;;
60436;SDS011;46289;51.992;4.498;2023-12-14T00:04:10;21.95;;;9.13;;
60436;SDS011;46289;51.992;4.498;2023-12-14T00:06:18;22.00;;;9.63;;
60436;SDS011;46289;51.992;4.498;2023-12-14T00:08:23;25.23;;;10.43;;
60436;SDS011;46289;51.992;4.498;2023-12-14T00:10:28;22.20;;;9.95;;
60436;SDS011;46289;51.992;4.498;2023-12-14T00:12:32;21.67;;;8.85;;
60436;SDS011;46289;51.992;4.498;2023-12-14T00:14:37;24.55;;;9.73;;
60436;SDS011;46289;51.992;4.498;2023-12-14T00:16:42;19.17;;;8.00;;
60436;SDS011;46289;51.992;4.498;2023-12-14T00:18:47;21.10;;;9.38;;
60436;SDS011;46289;51.992;4.498;2023-12-14T00:20:52;25.08;;;9.63;;
60436;SDS011;46289;51.992;4.498;2023-12-14T00:22:55;24.88;;;10.77;;
60436;SDS011;46289;51.992;4.498;2023-12-14T00:25:00;20.60;;;9.90;;
60436;SDS011;46289;51.992;4.498;2023-12-14T00:27:03;23.45;;;11.45;;
60436;SDS011;46289;51.992;4.498;2023-12-14T00:29:08;23.10;;;11.15;;
60436;SDS011;46289;51.992;4.498;2023-12-14T00:31:13;20.73;;;8.70;;
60436;SDS011;46289;51.992;4.498;2023-12-14T00:33:18;21.52;;;9.35;;
60436;SDS011;46289;51.992;4.498;2023-12-14T00:35:27;16.30;;;8.32;;
60436;SDS011;46289;51.992;4.498;2023-12-14T00:37:32;24.95;;;9.77;;
60436;SDS011;46289;51.992;4.498;2023-12-14T00:39:37;20.38;;;9.32;;
60436;SDS011;46289;51.992;4.498;2023-12-14T00:41:42;26.77;;;10.77;;
60436;SDS011;46289;51.992;4.498;2023-12-14T00:43:47;19.02;;;8.27;;
60436;SDS011;46289;51.992;4.498;2023-12-14T00:45:52;20.98;;;8.50;;
60436;SDS011;46289;51.992;4.498;2023-12-14T00:47:57;18.15;;;8.77;;
60436;SDS011;46289;51.992;4.498;2023-12-14T00:49:59;18.63;;;9.13;;
60436;SDS011;46289;51.992;4.498;2023-12-14T00:52:07;22.85;;;10.68;;
60436;SDS011;46289;51.992;4.498;2023-12-14T00:54:12;20.90;;;8.68;;
60436;SDS011;46289;51.992;4.498;2023-12-14T00:56:17;21.13;;;9.02;;
60436;SDS011;46289;51.992;4.498;2023-12-14T00:58:22;18.98;;;7.70;;
60436;SDS011;46289;51.992;4.498;2023-12-14T01:00:27;19.48;;;9.05;;
60436;SDS011;46289;51.992;4.498;2023-12-14T01:02:32;15.93;;;7.25;;
60436;SDS011;46289;51.992;4.498;2023-12-14T01:04:38;23.13;;;8.88;;
60436;SDS011;46289;51.992;4.498;2023-12-14T01:06:43;21.35;;;8.60;;
60436;SDS011;46289;51.992;4.498;2023-12-14T01:08:48;18.05;;;8.30;;
60436;SDS011;46289;51.992;4.498;2023-12-14T01:10:53;22.40;;;8.57;;
60436;SDS011;46289;51.992;4.498;2023-12-14T01:12:55;20.73;;;8.65;;
60436;SDS011;46289;51.992;4.498;2023-12-14T01:15:00;17.65;;;7.63;;
60436;SDS011;46289;51.992;4.498;2023-12-14T01:17:05;19.40;;;8.48;;
60436;SDS011;46289;51.992;4.498;2023-12-14T01:19:10;22.50;;;7.97;;
60436;SDS011;46289;51.992;4.498;2023-12-14T01:23:18;17.63;;;8.45;;
60436;SDS011;46289;51.992;4.498;2023-12-14T01:25:23;19.38;;;8.70;;
60436;SDS011;46289;51.992;4.498;2023-12-14T01:27:27;26.20;;;9.20;;
60436;SDS011;46289;51.992;4.498;2023-12-14T01:29:32;22.63;;;9.52;;
60436;SDS011;46289;51.992;4.498;2023-12-14T01:31:38;21.25;;;9.18;;
60436;SDS011;46289;51.992;4.498;2023-12-14T01:33:43;23.25;;;9.85;;
60436;SDS011;46289;51.992;4.498;2023-12-14T01:35:48;19.98;;;10.07;;
60436;SDS011;46289;51.992;4.498;2023-12-14T01:37:53;22.90;;;10.48;;
60436;SDS011;46289;51.992;4.498;2023-12-14T01:39:58;21.10;;;8.52;;
60436;SDS011;46289;51.992;4.498;2023-12-14T01:42:03;30.15;;;10.43;;
60436;SDS011;46289;51.992;4.498;2023-12-14T01:44:08;27.60;;;10.25;;
60436;SDS011;46289;51.992;4.498;2023-12-14T01:46:13;35.35;;;11.45;;
60436;SDS011;46289;51.992;4.498;2023-12-14T01:48:18;19.58;;;8.60;;
60436;SDS011;46289;51.992;4.498;2023-12-14T01:50:23;25.30;;;10.07;;
60436;SDS011;46289;51.992;4.498;2023-12-14T01:52:28;29.10;;;10.90;;
60436;SDS011;46289;51.992;4.498;2023-12-14T01:54:34;23.92;;;9.65;;
60436;SDS011;46289;51.992;4.498;2023-12-14T01:56:39;23.85;;;9.15;;
60436;SDS011;46289;51.992;4.498;2023-12-14T01:58:46;21.00;;;8.95;;
60436;SDS011;46289;51.992;4.498;2023-12-14T02:00:52;28.17;;;9.82;;
60436;SDS011;46289;51.992;4.498;2023-12-14T02:03:04;30.25;;;11.05;;
60436;SDS011;46289;51.992;4.498;2023-12-14T02:05:09;19.90;;;9.73;;
60436;SDS011;46289;51.992;4.498;2023-12-14T02:07:12;27.10;;;9.50;;
60436;SDS011;46289;51.992;4.498;2023-12-14T02:09:17;23.33;;;10.07;;
60436;SDS011;46289;51.992;4.498;2023-12-14T02:11:22;29.67;;;9.98;;
60436;SDS011;46289;51.992;4.498;2023-12-14T02:13:25;23.25;;;11.63;;
60436;SDS011;46289;51.992;4.498;2023-12-14T02:15:35;26.48;;;9.57;;
60436;SDS011;46289;51.992;4.498;2023-12-14T02:17:40;24.88;;;10.98;;
60436;SDS011;46289;51.992;4.498;2023-12-14T02:19:42;19.75;;;9.07;;
60436;SDS011;46289;51.992;4.498;2023-12-14T02:21:47;21.40;;;9.70;;
60436;SDS011;46289;51.992;4.498;2023-12-14T02:23:52;20.13;;;8.57;;
60436;SDS011;46289;51.992;4.498;2023-12-14T02:25:57;27.15;;;9.32;;
60436;SDS011;46289;51.992;4.498;2023-12-14T02:28:02;29.23;;;10.13;;
60436;SDS011;46289;51.992;4.498;2023-12-14T02:30:05;20.30;;;9.52;;
60436;SDS011;46289;51.992;4.498;2023-12-14T02:32:11;21.83;;;9.25;;
60436;SDS011;46289;51.992;4.498;2023-12-14T02:34:16;23.60;;;10.50;;
60436;SDS011;46289;51.992;4.498;2023-12-14T02:36:19;21.52;;;8.68;;
60436;SDS011;46289;51.992;4.498;2023-12-14T02:38:23;26.25;;;9.25;;
60436;SDS011;46289;51.992;4.498;2023-12-14T02:40:35;22.45;;;9.20;;
60436;SDS011;46289;51.992;4.498;2023-12-14T02:42:40;23.27;;;10.13;;
60436;SDS011;46289;51.992;4.498;2023-12-14T02:44:46;21.63;;;8.68;;
60436;SDS011;46289;51.992;4.498;2023-12-14T02:46:51;24.70;;;9.10;;
60436;SDS011;46289;51.992;4.498;2023-12-14T02:48:53;23.63;;;8.90;;
60436;SDS011;46289;51.992;4.498;2023-12-14T02:50:59;19.02;;;8.27;;
60436;SDS011;46289;51.992;4.498;2023-12-14T02:53:04;25.80;;;8.20;;
60436;SDS011;46289;51.992;4.498;2023-12-14T02:55:09;27.10;;;8.43;;
60436;SDS011;46289;51.992;4.498;2023-12-14T02:57:16;22.00;;;8.43;;
60436;SDS011;46289;51.992;4.498;2023-12-14T02:59:18;20.27;;;8.10;;
60436;SDS011;46289;51.992;4.498;2023-12-14T03:01:23;21.95;;;8.77;;
60436;SDS011;46289;51.992;4.498;2023-12-14T03:03:28;28.85;;;10.27;;
60436;SDS011;46289;51.992;4.498;2023-12-14T03:05:34;28.00;;;8.55;;
60436;SDS011;46289;51.992;4.498;2023-12-14T03:07:39;22.55;;;7.65;;
60436;SDS011;46289;51.992;4.498;2023-12-14T03:09:43;20.17;;;8.23;;
60436;SDS011;46289;51.992;4.498;2023-12-14T03:11:46;22.55;;;8.88;;
60436;SDS011;46289;51.992;4.498;2023-12-14T03:13:53;26.85;;;9.52;;
60436;SDS011;46289;51.992;4.498;2023-12-14T03:15:58;17.00;;;7.53;;
60436;SDS011;46289;51.992;4.498;2023-12-14T03:18:03;23.55;;;8.60;;
60436;SDS011;46289;51.992;4.498;2023-12-14T03:20:09;26.83;;;9.35;;
60436;SDS011;46289;51.992;4.498;2023-12-14T03:22:17;20.50;;;7.45;;
60436;SDS011;46289;51.992;4.498;2023-12-14T03:24:22;23.30;;;9.25;;
60436;SDS011;46289;51.992;4.498;2023-12-14T03:26:27;19.92;;;8.07;;
60436;SDS011;46289;51.992;4.498;2023-12-14T03:28:29;20.33;;;8.38;;
60436;SDS011;46289;51.992;4.498;2023-12-14T03:30:40;22.08;;;8.75;;
60436;SDS011;46289;51.992;4.498;2023-12-14T03:32:46;25.65;;;8.90;;
60436;SDS011;46289;51.992;4.498;2023-12-14T03:34:51;25.90;;;8.40;;
60436;SDS011;46289;51.992;4.498;2023-12-14T03:36:56;25.27;;;7.95;;
60436;SDS011;46289;51.992;4.498;2023-12-14T03:39:01;32.80;;;10.93;;
60436;SDS011;46289;51.992;4.498;2023-12-14T03:41:08;35.70;;;10.05;;
60436;SDS011;46289;51.992;4.498;2023-12-14T03:43:14;22.05;;;8.30;;
60436;SDS011;46289;51.992;4.498;2023-12-14T03:45:18;23.60;;;8.65;;
60436;SDS011;46289;51.992;4.498;2023-12-14T03:47:26;22.02;;;9.15;;
60436;SDS011;46289;51.992;4.498;2023-12-14T03:49:36;21.77;;;9.10;;
60436;SDS011;46289;51.992;4.498;2023-12-14T03:51:41;22.90;;;9.05;;
60436;SDS011;46289;51.992;4.498;2023-12-14T03:53:49;22.88;;;8.80;;
60436;SDS011;46289;51.992;4.498;2023-12-14T03:55:54;21.15;;;7.30;;
60436;SDS011;46289;51.992;4.498;2023-12-14T03:58:00;20.58;;;7.68;;
60436;SDS011;46289;51.992;4.498;2023-12-14T04:00:05;29.05;;;8.95;;
60436;SDS011;46289;51.992;4.498;2023-12-14T04:02:12;16.20;;;7.90;;
60436;SDS011;46289;51.992;4.498;2023-12-14T04:04:20;19.70;;;6.50;;
60436;SDS011;46289;51.992;4.498;2023-12-14T04:06:25;26.10;;;7.55;;
60436;SDS011;46289;51.992;4.498;2023-12-14T04:08:30;25.83;;;8.10;;
60436;SDS011;46289;51.992;4.498;2023-12-14T04:10:34;19.95;;;7.03;;
60436;SDS011;46289;51.992;4.498;2023-12-14T04:12:40;21.27;;;7.85;;
60436;SDS011;46289;51.992;4.498;2023-12-14T04:14:46;24.38;;;8.35;;
60436;SDS011;46289;51.992;4.498;2023-12-14T04:16:51;19.85;;;6.80;;
60436;SDS011;46289;51.992;4.498;2023-12-14T04:18:56;24.40;;;7.32;;
60436;SDS011;46289;51.992;4.498;2023-12-14T04:21:04;18.77;;;7.07;;
60436;SDS011;46289;51.992;4.498;2023-12-14T04:23:09;16.80;;;7.13;;
60436;SDS011;46289;51.992;4.498;2023-12-14T04:25:14;20.27;;;7.20;;
60436;SDS011;46289;51.992;4.498;2023-12-14T04:27:19;14.18;;;5.88;;
60436;SDS011;46289;51.992;4.498;2023-12-14T04:29:26;15.45;;;6.70;;
60436;SDS011;46289;51.992;4.498;2023-12-14T04:31:31;15.60;;;6.95;;
60436;SDS011;46289;51.992;4.498;2023-12-14T04:33:34;19.02;;;6.68;;
60436;SDS011;46289;51.992;4.498;2023-12-14T04:35:39;13.00;;;5.35;;
60436;SDS011;46289;51.992;4.498;2023-12-14T04:37:47;15.52;;;5.22;;
60436;SDS011;46289;51.992;4.498;2023-12-14T04:39:52;13.13;;;5.78;;
60436;SDS011;46289;51.992;4.498;2023-12-14T04:41:54;11.73;;;5.50;;
60436;SDS011;46289;51.992;4.498;2023-12-14T04:44:02;11.73;;;4.35;;
60436;SDS011;46289;51.992;4.498;2023-12-14T04:46:07;14.00;;;6.03;;
60436;SDS011;46289;51.992;4.498;2023-12-14T04:48:12;12.55;;;5.07;;
60436;SDS011;46289;51.992;4.498;2023-12-14T04:50:14;14.98;;;4.95;;
60436;SDS011;46289;51.992;4.498;2023-12-14T04:52:20;15.63;;;5.43;;
60436;SDS011;46289;51.992;4.498;2023-12-14T04:54:27;18.80;;;5.45;;
60436;SDS011;46289;51.992;4.498;2023-12-14T04:56:32;18.67;;;6.13;;
60436;SDS011;46289;51.992;4.498;2023-12-14T04:58:38;11.10;;;5.15;;
60436;SDS011;46289;51.992;4.498;2023-12-14T05:00:43;12.30;;;5.32;;
60436;SDS011;46289;51.992;4.498;2023-12-14T05:02:48;14.00;;;5.07;;
60436;SDS011;46289;51.992;4.498;2023-12-14T05:04:53;13.90;;;5.05;;
60436;SDS011;46289;51.992;4.498;2023-12-14T05:06:57;14.35;;;5.25;;
60436;SDS011;46289;51.992;4.498;2023-12-14T05:09:02;11.77;;;5.45;;
60436;SDS011;46289;51.992;4.498;2023-12-14T05:11:11;10.98;;;4.45;;
60436;SDS011;46289;51.992;4.498;2023-12-14T05:13:17;12.68;;;5.05;;
60436;SDS011;46289;51.992;4.498;2023-12-14T05:15:19;12.93;;;4.28;;
60436;SDS011;46289;51.992;4.498;2023-12-14T05:17:24;16.58;;;5.05;;
60436;SDS011;46289;51.992;4.498;2023-12-14T05:19:32;8.93;;;4.15;;
60436;SDS011;46289;51.992;4.498;2023-12-14T05:21:38;16.52;;;5.55;;
60436;SDS011;46289;51.992;4.498;2023-12-14T05:23:43;10.52;;;4.78;;
60436;SDS011;46289;51.992;4.498;2023-12-14T05:25:48;15.80;;;5.15;;
60436;SDS011;46289;51.992;4.498;2023-12-14T05:27:55;14.45;;;4.88;;
60436;SDS011;46289;51.992;4.498;2023-12-14T05:30:00;9.02;;;5.07;;
60436;SDS011;46289;51.992;4.498;2023-12-14T05:32:04;10.52;;;4.80;;
60436;SDS011;46289;51.992;4.498;2023-12-14T05:34:10;10.90;;;4.30;;
60436;SDS011;46289;51.992;4.498;2023-12-14T05:36:15;10.25;;;4.88;;
60436;SDS011;46289;51.992;4.498;2023-12-14T05:38:22;9.25;;;4.55;;
60436;SDS011;46289;51.992;4.498;2023-12-14T05:40:27;9.95;;;4.97;;
60436;SDS011;46289;51.992;4.498;2023-12-14T05:42:33;8.48;;;4.53;;
60436;SDS011;46289;51.992;4.498;2023-12-14T05:46:43;11.32;;;5.30;;
60436;SDS011;46289;51.992;4.498;2023-12-14T05:48:48;18.27;;;6.15;;
60436;SDS011;46289;51.992;4.498;2023-12-14T05:50:51;10.25;;;4.38;;
60436;SDS011;46289;51.992;4.498;2023-12-14T05:52:56;13.48;;;5.63;;
60436;SDS011;46289;51.992;4.498;2023-12-14T05:55:01;10.95;;;4.95;;
60436;SDS011;46289;51.992;4.498;2023-12-14T05:57:06;16.70;;;5.07;;
60436;SDS011;46289;51.992;4.498;2023-12-14T05:59:14;13.57;;;5.07;;
60436;SDS011;46289;51.992;4.498;2023-12-14T06:01:23;12.07;;;5.15;;
60436;SDS011;46289;51.992;4.498;2023-12-14T06:03:28;11.45;;;5.40;;
60436;SDS011;46289;51.992;4.498;2023-12-14T06:05:33;11.88;;;5.53;;
60436;SDS011;46289;51.992;4.498;2023-12-14T06:07:39;11.15;;;4.53;;
60436;SDS011;46289;51.992;4.498;2023-12-14T06:09:44;13.25;;;4.90;;
60436;SDS011;46289;51.992;4.498;2023-12-14T06:11:49;13.15;;;5.53;;
60436;SDS011;46289;51.992;4.498;2023-12-14T06:13:54;12.73;;;5.88;;
60436;SDS011;46289;51.992;4.498;2023-12-14T06:15:58;10.93;;;5.03;;
60436;SDS011;46289;51.992;4.498;2023-12-14T06:18:07;13.40;;;5.45;;
60436;SDS011;46289;51.992;4.498;2023-12-14T06:20:12;13.23;;;6.03;;
60436;SDS011;46289;51.992;4.498;2023-12-14T06:22:18;11.98;;;5.47;;
60436;SDS011;46289;51.992;4.498;2023-12-14T06:24:22;12.00;;;5.00;;
60436;SDS011;46289;51.992;4.498;2023-12-14T06:26:27;13.30;;;4.80;;
60436;SDS011;46289;51.992;4.498;2023-12-14T06:28:32;17.05;;;5.38;;
60436;SDS011;46289;51.992;4.498;2023-12-14T06:30:38;14.30;;;5.43;;
60436;SDS011;46289;51.992;4.498;2023-12-14T06:32:40;19.85;;;7.00;;
60436;SDS011;46289;51.992;4.498;2023-12-14T06:34:47;14.95;;;5.80;;
60436;SDS011;46289;51.992;4.498;2023-12-14T06:36:53;10.48;;;4.43;;
60436;SDS011;46289;51.992;4.498;2023-12-14T06:39:00;11.98;;;5.18;;
60436;SDS011;46289;51.992;4.498;2023-12-14T06:41:07;11.95;;;5.28;;
60436;SDS011;46289;51.992;4.498;2023-12-14T06:43:12;15.48;;;5.70;;
60436;SDS011;46289;51.992;4.498;2023-12-14T06:45:17;10.90;;;6.68;;
60436;SDS011;46289;51.992;4.498;2023-12-14T06:47:22;12.70;;;5.57;;
60436;SDS011;46289;51.992;4.498;2023-12-14T06:49:27;12.88;;;6.00;;
60436;SDS011;46289;51.992;4.498;2023-12-14T06:51:32;15.23;;;6.60;;
60436;SDS011;46289;51.992;4.498;2023-12-14T06:53:39;12.05;;;5.22;;
60436;SDS011;46289;51.992;4.498;2023-12-14T06:55:45;13.70;;;6.15;;
60436;SDS011;46289;51.992;4.498;2023-12-14T06:57:50;9.38;;;4.35;;
60436;SDS011;46289;51.992;4.498;2023-12-14T06:59:58;10.68;;;4.60;;
60436;SDS011;46289;51.992;4.498;2023-12-14T07:02:03;16.55;;;6.60;;
60436;SDS011;46289;51.992;4.498;2023-12-14T07:04:08;12.23;;;5.85;;
60436;SDS011;46289;51.992;4.498;2023-12-14T07:06:17;10.85;;;5.22;;
60436;SDS011;46289;51.992;4.498;2023-12-14T07:08:25;15.07;;;6.50;;
60436;SDS011;46289;51.992;4.498;2023-12-14T07:10:30;12.63;;;5.93;;
60436;SDS011;46289;51.992;4.498;2023-12-14T07:12:34;17.30;;;6.20;;
60436;SDS011;46289;51.992;4.498;2023-12-14T07:14:39;17.55;;;5.90;;
60436;SDS011;46289;51.992;4.498;2023-12-14T07:16:41;11.80;;;5.40;;
60436;SDS011;46289;51.992;4.498;2023-12-14T07:18:47;13.50;;;6.07;;
60436;SDS011;46289;51.992;4.498;2023-12-14T07:20:50;15.13;;;6.57;;
60436;SDS011;46289;51.992;4.498;2023-12-14T07:22:55;14.77;;;6.10;;
60436;SDS011;46289;51.992;4.498;2023-12-14T07:25:03;13.77;;;5.30;;
60436;SDS011;46289;51.992;4.498;2023-12-14T07:27:08;13.75;;;5.90;;
60436;SDS011;46289;51.992;4.498;2023-12-14T07:29:13;13.10;;;5.68;;
60436;SDS011;46289;51.992;4.498;2023-12-14T07:31:18;12.98;;;5.88;;
60436;SDS011;46289;51.992;4.498;2023-12-14T07:33:23;11.57;;;5.20;;
60436;SDS011;46289;51.992;4.498;2023-12-14T07:35:28;18.17;;;6.65;;
60436;SDS011;46289;51.992;4.498;2023-12-14T07:37:33;13.30;;;6.07;;
60436;SDS011;46289;51.992;4.498;2023-12-14T07:39:35;15.23;;;6.03;;
60436;SDS011;46289;51.992;4.498;2023-12-14T07:41:43;11.45;;;5.25;;
60436;SDS011;46289;51.992;4.498;2023-12-14T07:43:48;14.18;;;5.95;;
60436;SDS011;46289;51.992;4.498;2023-12-14T07:45:53;11.80;;;5.20;;
60436;SDS011;46289;51.992;4.498;2023-12-14T07:47:58;13.35;;;6.35;;
60436;SDS011;46289;51.992;4.498;2023-12-14T07:50:03;11.88;;;5.15;;
60436;SDS011;46289;51.992;4.498;2023-12-14T07:52:09;9.90;;;4.70;;
60436;SDS011;46289;51.992;4.498;2023-12-14T07:54:17;17.92;;;6.18;;
60436;SDS011;46289;51.992;4.498;2023-12-14T07:56:20;15.77;;;5.50;;
60436;SDS011;46289;51.992;4.498;2023-12-14T07:58:29;15.10;;;5.50;;
60436;SDS011;46289;51.992;4.498;2023-12-14T08:00:35;12.18;;;5.35;;
60436;SDS011;46289;51.992;4.498;2023-12-14T08:02:39;10.70;;;6.03;;
60436;SDS011;46289;51.992;4.498;2023-12-14T08:04:44;18.27;;;6.18;;
60436;SDS011;46289;51.992;4.498;2023-12-14T08:06:49;16.73;;;6.78;;
60436;SDS011;46289;51.992;4.498;2023-12-14T08:08:54;12.70;;;5.10;;
60436;SDS011;46289;51.992;4.498;2023-12-14T08:11:02;12.73;;;5.57;;
60436;SDS011;46289;51.992;4.498;2023-12-14T08:13:08;14.88;;;7.10;;
60436;SDS011;46289;51.992;4.498;2023-12-14T08:15:16;12.43;;;6.32;;
60436;SDS011;46289;51.992;4.498;2023-12-14T08:17:21;12.52;;;6.95;;
60436;SDS011;46289;51.992;4.498;2023-12-14T08:19:27;13.68;;;6.82;;
60436;SDS011;46289;51.992;4.498;2023-12-14T08:21:32;18.08;;;6.45;;
60436;SDS011;46289;51.992;4.498;2023-12-14T08:23:37;12.77;;;5.95;;
60436;SDS011;46289;51.992;4.498;2023-12-14T08:25:42;11.77;;;5.93;;
60436;SDS011;46289;51.992;4.498;2023-12-14T08:27:47;14.35;;;5.95;;
60436;SDS011;46289;51.992;4.498;2023-12-14T08:29:53;14.98;;;6.20;;
60436;SDS011;46289;51.992;4.498;2023-12-14T08:32:00;14.50;;;6.47;;
60436;SDS011;46289;51.992;4.498;2023-12-14T08:34:05;16.80;;;6.03;;
60436;SDS011;46289;51.992;4.498;2023-12-14T08:36:10;14.57;;;6.40;;
60436;SDS011;46289;51.992;4.498;2023-12-14T08:38:20;17.52;;;7.72;;
60436;SDS011;46289;51.992;4.498;2023-12-14T08:40:25;17.13;;;7.15;;
60436;SDS011;46289;51.992;4.498;2023-12-14T08:42:30;17.63;;;7.13;;
60436;SDS011;46289;51.992;4.498;2023-12-14T08:44:38;14.90;;;7.00;;
60436;SDS011;46289;51.992;4.498;2023-12-14T08:46:43;15.13;;;7.22;;
60436;SDS011;46289;51.992;4.498;2023-12-14T08:48:52;17.85;;;7.85;;
60436;SDS011;46289;51.992;4.498;2023-12-14T08:50:57;13.50;;;6.88;;
60436;SDS011;46289;51.992;4.498;2023-12-14T08:53:02;17.38;;;7.13;;
60436;SDS011;46289;51.992;4.498;2023-12-14T08:55:09;16.45;;;6.53;;
60436;SDS011;46289;51.992;4.498;2023-12-14T08:57:13;15.48;;;6.35;;
60436;SDS011;46289;51.992;4.498;2023-12-14T08:59:18;15.25;;;7.30;;
60436;SDS011;46289;51.992;4.498;2023-12-14T09:01:22;13.48;;;5.95;;
60436;SDS011;46289;51.992;4.498;2023-12-14T09:03:28;16.88;;;6.88;;
60436;SDS011;46289;51.992;4.498;2023-12-14T09:05:35;18.50;;;7.25;;
60436;SDS011;46289;51.992;4.498;2023-12-14T09:07:43;19.05;;;7.97;;
60436;SDS011;46289;51.992;4.498;2023-12-14T09:09:48;19.23;;;6.68;;
60436;SDS011;46289;51.992;4.498;2023-12-14T09:11:53;17.42;;;6.65;;
60436;SDS011;46289;51.992;4.498;2023-12-14T09:13:58;18.75;;;7.30;;
60436;SDS011;46289;51.992;4.498;2023-12-14T09:16:04;13.75;;;5.65;;
60436;SDS011;46289;51.992;4.498;2023-12-14T09:18:07;15.73;;;7.22;;
60436;SDS011;46289;51.992;4.498;2023-12-14T09:20:14;21.77;;;8.05;;
60436;SDS011;46289;51.992;4.498;2023-12-14T09:22:22;17.73;;;7.45;;
60436;SDS011;46289;51.992;4.498;2023-12-14T09:24:24;17.52;;;8.60;;
60436;SDS011;46289;51.992;4.498;2023-12-14T09:26:30;16.55;;;7.30;;
60436;SDS011;46289;51.992;4.498;2023-12-14T09:28:35;22.65;;;7.70;;
60436;SDS011;46289;51.992;4.498;2023-12-14T09:30:40;20.70;;;9.43;;
60436;SDS011;46289;51.992;4.498;2023-12-14T09:32:49;17.23;;;8.05;;
60436;SDS011;46289;51.992;4.498;2023-12-14T09:34:54;19.92;;;8.13;;
60436;SDS011;46289;51.992;4.498;2023-12-14T09:36:59;17.00;;;6.80;;
60436;SDS011;46289;51.992;4.498;2023-12-14T09:39:10;13.93;;;7.05;;
60436;SDS011;46289;51.992;4.498;2023-12-14T09:41:17;13.77;;;6.82;;
60436;SDS011;46289;51.992;4.498;2023-12-14T09:43:21;14.20;;;6.07;;
60436;SDS011;46289;51.992;4.498;2023-12-14T09:45:27;16.65;;;7.93;;
60436;SDS011;46289;51.992;4.498;2023-12-14T09:47:33;18.10;;;8.95;;
60436;SDS011;46289;51.992;4.498;2023-12-14T09:49:39;17.73;;;7.35;;
60436;SDS011;46289;51.992;4.498;2023-12-14T09:51:46;22.25;;;8.30;;
60436;SDS011;46289;51.992;4.498;2023-12-14T09:53:51;16.02;;;7.05;;
60436;SDS011;46289;51.992;4.498;2023-12-14T09:56:04;16.42;;;7.35;;
60436;SDS011;46289;51.992;4.498;2023-12-14T09:58:10;19.15;;;7.90;;
60436;SDS011;46289;51.992;4.498;2023-12-14T10:00:30;17.55;;;8.25;;
60436;SDS011;46289;51.992;4.498;2023-12-14T10:02:35;16.73;;;7.97;;
60436;SDS011;46289;51.992;4.498;2023-12-14T10:04:39;17.90;;;8.27;;
60436;SDS011;46289;51.992;4.498;2023-12-14T10:06:45;18.48;;;7.10;;
60436;SDS011;46289;51.992;4.498;2023-12-14T10:08:53;15.18;;;7.05;;
60436;SDS011;46289;51.992;4.498;2023-12-14T10:10:59;13.88;;;6.35;;
60436;SDS011;46289;51.992;4.498;2023-12-14T10:13:08;18.42;;;7.75;;
60436;SDS011;46289;51.992;4.498;2023-12-14T10:15:17;18.13;;;7.68;;
60436;SDS011;46289;51.992;4.498;2023-12-14T10:17:26;16.13;;;7.72;;
60436;SDS011;46289;51.992;4.498;2023-12-14T10:19:34;19.35;;;7.88;;
60436;SDS011;46289;51.992;4.498;2023-12-14T10:21:40;16.40;;;7.15;;
60436;SDS011;46289;51.992;4.498;2023-12-14T10:23:45;18.10;;;6.60;;
60436;SDS011;46289;51.992;4.498;2023-12-14T10:25:48;18.50;;;7.38;;
60436;SDS011;46289;51.992;4.498;2023-12-14T10:27:53;18.27;;;7.10;;
60436;SDS011;46289;51.992;4.498;2023-12-14T10:29:58;20.83;;;8.60;;
60436;SDS011;46289;51.992;4.498;2023-12-14T10:32:03;19.25;;;7.93;;
60436;SDS011;46289;51.992;4.498;2023-12-14T10:34:10;13.07;;;7.65;;
60436;SDS011;46289;51.992;4.498;2023-12-14T10:36:18;17.60;;;8.00;;
60436;SDS011;46289;51.992;4.498;2023-12-14T10:38:21;12.63;;;7.10;;
60436;SDS011;46289;51.992;4.498;2023-12-14T10:40:31;15.73;;;6.28;;
60436;SDS011;46289;51.992;4.498;2023-12-14T10:42:38;17.00;;;7.05;;
60436;SDS011;46289;51.992;4.498;2023-12-14T10:44:48;13.45;;;6.78;;
60436;SDS011;46289;51.992;4.498;2023-12-14T10:47:20;21.00;;;7.32;;
60436;SDS011;46289;51.992;4.498;2023-12-14T10:49:26;15.35;;;6.72;;
60436;SDS011;46289;51.992;4.498;2023-12-14T10:51:33;18.60;;;6.95;;
60436;SDS011;46289;51.992;4.498;2023-12-14T10:53:47;17.73;;;7.68;;
60436;SDS011;46289;51.992;4.498;2023-12-14T10:55:53;15.82;;;6.35;;
60436;SDS011;46289;51.992;4.498;2023-12-14T10:58:00;12.57;;;6.60;;
60436;SDS011;46289;51.992;4.498;2023-12-14T11:00:09;15.80;;;7.22;;
60436;SDS011;46289;51.992;4.498;2023-12-14T11:02:17;14.60;;;6.65;;
60436;SDS011;46289;51.992;4.498;2023-12-14T11:04:23;20.05;;;7.93;;
60436;SDS011;46289;51.992;4.498;2023-12-14T11:06:31;15.93;;;6.63;;
60436;SDS011;46289;51.992;4.498;2023-12-14T11:08:34;12.10;;;6.40;;
60436;SDS011;46289;51.992;4.498;2023-12-14T11:10:41;18.08;;;7.75;;
60436;SDS011;46289;51.992;4.498;2023-12-14T11:12:51;16.92;;;7.78;;
60436;SDS011;46289;51.992;4.498;2023-12-14T11:15:00;16.80;;;6.47;;
60436;SDS011;46289;51.992;4.498;2023-12-14T11:17:06;15.48;;;6.47;;
60436;SDS011;46289;51.992;4.498;2023-12-14T11:21:42;13.20;;;6.03;;
60436;SDS011;46289;51.992;4.498;2023-12-14T11:23:44;14.02;;;6.70;;
60436;SDS011;46289;51.992;4.498;2023-12-14T11:25:50;15.73;;;6.22;;
60436;SDS011;46289;51.992;4.498;2023-12-14T11:28:02;13.75;;;6.47;;
60436;SDS011;46289;51.992;4.498;2023-12-14T11:30:10;16.02;;;7.20;;
60436;SDS011;46289;51.992;4.498;2023-12-14T11:32:18;15.60;;;6.53;;
60436;SDS011;46289;51.992;4.498;2023-12-14T11:34:25;19.65;;;7.70;;
60436;SDS011;46289;51.992;4.498;2023-12-14T11:36:32;15.32;;;5.88;;
60436;SDS011;46289;51.992;4.498;2023-12-14T11:38:41;13.63;;;6.00;;
60436;SDS011;46289;51.992;4.498;2023-12-14T11:40:49;16.55;;;6.72;;
60436;SDS011;46289;51.992;4.498;2023-12-14T11:42:57;17.30;;;6.70;;
60436;SDS011;46289;51.992;4.498;2023-12-14T11:45:03;14.63;;;6.55;;
60436;SDS011;46289;51.992;4.498;2023-12-14T11:47:08;17.50;;;7.15;;
60436;SDS011;46289;51.992;4.498;2023-12-14T11:49:13;15.23;;;7.75;;
60436;SDS011;46289;51.992;4.498;2023-12-14T11:51:18;17.25;;;6.95;;
60436;SDS011;46289;51.992;4.498;2023-12-14T11:53:26;18.45;;;7.80;;
60436;SDS011;46289;51.992;4.498;2023-12-14T11:55:32;16.80;;;8.45;;
60436;SDS011;46289;51.992;4.498;2023-12-14T11:57:40;18.98;;;8.63;;
60436;SDS011;46289;51.992;4.498;2023-12-14T11:59:50;20.17;;;8.23;;
60436;SDS011;46289;51.992;4.498;2023-12-14T12:01:56;21.20;;;8.20;;
60436;SDS011;46289;51.992;4.498;2023-12-14T12:04:08;17.27;;;7.55;;
60436;SDS011;46289;51.992;4.498;2023-12-14T12:06:20;21.20;;;8.65;;
60436;SDS011;46289;51.992;4.498;2023-12-14T12:08:29;22.25;;;8.52;;
60436;SDS011;46289;51.992;4.498;2023-12-14T12:10:45;17.88;;;8.10;;
60436;SDS011;46289;51.992;4.498;2023-12-14T12:12:48;21.80;;;9.02;;
60436;SDS011;46289;51.992;4.498;2023-12-14T12:15:02;26.15;;;10.65;;
60436;SDS011;46289;51.992;4.498;2023-12-14T12:17:08;19.08;;;8.65;;
60436;SDS011;46289;51.992;4.498;2023-12-14T12:19:13;18.67;;;8.98;;
60436;SDS011;46289;51.992;4.498;2023-12-14T12:21:18;18.17;;;7.72;;
60436;SDS011;46289;51.992;4.498;2023-12-14T12:23:23;19.60;;;8.52;;
60436;SDS011;46289;51.992;4.498;2023-12-14T12:25:31;20.60;;;8.10;;
60436;SDS011;46289;51.992;4.498;2023-12-14T12:27:37;19.73;;;7.65;;
60436;SDS011;46289;51.992;4.498;2023-12-14T12:29:39;22.23;;;7.93;;
60436;SDS011;46289;51.992;4.498;2023-12-14T12:31:44;22.70;;;8.13;;